sensor_id;sensor_type;location;lat;lon;timestamp;pressure;altitude;pressure_sealevel;temperature;humidity
20987;BME280;10652;50.306;8.570;2022-11-12T00:02:07;99605.28;;;4.80;100.00
20987;BME280;10652;50.306;8.570;2022-11-12T00:06:27;99597.47;;;4.82;100.00
20987;BME280;10652;50.306;8.570;2022-11-12T00:10:48;99588.84;;;4.83;100.00
20987;BME280;10652;50.306;8.570;2022-11-12T00:15:09;99596.72;;;4.92;100.00
20987;BME280;10652;50.306;8.570;2022-11-12T00:19:30;99602.75;;;4.91;100.00
20987;BME280;10652;50.306;8.570;2022-11-12T00:23:50;99600.09;;;4.82;100.00
20987;BME280;10652;50.306;8.570;2022-11-12T00:28:11;99603.50;;;4.75;100.00
20987;BME280;10652;50.306;8.570;2022-11-12T00:32:34;99611.22;;;4.69;100.00
20987;BME280;10652;50.306;8.570;2022-11-12T00:36:55;99603.38;;;4.61;100.00
20987;BME280;10652;50.306;8.570;2022-11-12T00:41:16;99604.22;;;4.62;100.00
20987;BME280;10652;50.306;8.570;2022-11-12T00:45:36;99589.47;;;4.56;100.00
20987;BME280;10652;50.306;8.570;2022-11-12T00:49:57;99596.38;;;4.53;100.00
20987;BME280;10652;50.306;8.570;2022-11-12T00:54:17;99594.53;;;4.42;100.00
20987;BME280;10652;50.306;8.570;2022-11-12T00:58:38;99603.19;;;4.43;100.00
20987;BME280;10652;50.306;8.570;2022-11-12T01:02:58;99589.44;;;4.55;100.00
20987;BME280;10652;50.306;8.570;2022-11-12T01:07:19;99589.38;;;4.44;100.00
20987;BME280;10652;50.306;8.570;2022-11-12T01:11:40;99586.63;;;4.30;100.00
20987;BME280;10652;50.306;8.570;2022-11-12T01:16:21;99582.34;;;4.34;100.00
20987;BME280;10652;50.306;8.570;2022-11-12T01:20:42;99584.03;;;4.32;100.00
20987;BME280;10652;50.306;8.570;2022-11-12T01:25:03;99578.69;;;4.18;100.00
20987;BME280;10652;50.306;8.570;2022-11-12T01:29:24;99582.03;;;4.07;100.00
20987;BME280;10652;50.306;8.570;2022-11-12T01:33:46;99581.09;;;4.01;100.00
20987;BME280;10652;50.306;8.570;2022-11-12T01:38:07;99572.34;;;3.92;100.00
20987;BME280;10652;50.306;8.570;2022-11-12T01:42:31;99580.22;;;3.98;100.00
20987;BME280;10652;50.306;8.570;2022-11-12T01:47:24;99580.91;;;3.86;100.00
20987;BME280;10652;50.306;8.570;2022-11-12T01:51:45;99581.41;;;3.56;100.00
20987;BME280;10652;50.306;8.570;2022-11-12T01:56:09;99577.84;;;3.50;100.00
20987;BME280;10652;50.306;8.570;2022-11-12T02:00:30;99583.22;;;3.62;100.00
20987;BME280;10652;50.306;8.570;2022-11-12T02:04:51;99578.91;;;3.63;100.00
20987;BME280;10652;50.306;8.570;2022-11-12T02:09:14;99578.09;;;3.67;100.00
20987;BME280;10652;50.306;8.570;2022-11-12T02:13:34;99578.16;;;3.73;100.00
20987;BME280;10652;50.306;8.570;2022-11-12T02:18:14;99572.16;;;3.75;100.00
20987;BME280;10652;50.306;8.570;2022-11-12T02:22:35;99567.84;;;3.77;100.00
20987;BME280;10652;50.306;8.570;2022-11-12T02:26:55;99566.09;;;3.75;100.00
20987;BME280;10652;50.306;8.570;2022-11-12T02:31:16;99571.25;;;3.72;100.00
20987;BME280;10652;50.306;8.570;2022-11-12T02:35:36;99571.16;;;3.66;100.00
20987;BME280;10652;50.306;8.570;2022-11-12T02:39:57;99566.00;;;3.66;100.00
20987;BME280;10652;50.306;8.570;2022-11-12T02:44:17;99566.72;;;3.55;100.00
20987;BME280;10652;50.306;8.570;2022-11-12T02:48:38;99568.31;;;3.44;100.00
20987;BME280;10652;50.306;8.570;2022-11-12T02:52:58;99557.75;;;3.32;100.00
20987;BME280;10652;50.306;8.570;2022-11-12T02:57:19;99557.75;;;3.32;100.00
20987;BME280;10652;50.306;8.570;2022-11-12T03:01:40;99569.84;;;3.33;100.00
20987;BME280;10652;50.306;8.570;2022-11-12T03:06:01;99563.78;;;3.30;100.00
20987;BME280;10652;50.306;8.570;2022-11-12T03:10:22;99567.09;;;3.23;100.00
20987;BME280;10652;50.306;8.570;2022-11-12T03:14:43;99569.78;;;3.29;100.00
20987;BME280;10652;50.306;8.570;2022-11-12T03:19:03;99565.59;;;3.37;100.00
20987;BME280;10652;50.306;8.570;2022-11-12T03:23:25;99578.56;;;3.38;100.00
20987;BME280;10652;50.306;8.570;2022-11-12T03:27:46;99573.59;;;3.55;100.00
20987;BME280;10652;50.306;8.570;2022-11-12T03:32:06;99568.56;;;3.63;100.00
20987;BME280;10652;50.306;8.570;2022-11-12T03:36:27;99559.97;;;3.67;100.00
20987;BME280;10652;50.306;8.570;2022-11-12T03:40:48;99563.41;;;3.69;100.00
20987;BME280;10652;50.306;8.570;2022-11-12T03:45:09;99556.66;;;3.77;100.00
20987;BME280;10652;50.306;8.570;2022-11-12T03:49:29;99553.34;;;3.91;100.00
20987;BME280;10652;50.306;8.570;2022-11-12T03:53:50;99551.72;;;4.01;100.00
20987;BME280;10652;50.306;8.570;2022-11-12T03:58:10;99550.19;;;4.17;100.00
20987;BME280;10652;50.306;8.570;2022-11-12T04:02:31;99552.09;;;4.37;100.00
20987;BME280;10652;50.306;8.570;2022-11-12T04:06:51;99565.16;;;4.46;100.00
20987;BME280;10652;50.306;8.570;2022-11-12T04:11:31;99566.09;;;4.52;100.00
20987;BME280;10652;50.306;8.570;2022-11-12T04:16:16;99566.81;;;4.38;100.00
20987;BME280;10652;50.306;8.570;2022-11-12T04:20:56;99560.44;;;4.09;100.00
20987;BME280;10652;50.306;8.570;2022-11-12T04:25:35;99568.19;;;4.06;100.00
20987;BME280;10652;50.306;8.570;2022-11-12T04:30:14;99567.50;;;4.18;100.00
20987;BME280;10652;50.306;8.570;2022-11-12T04:34:35;99569.25;;;4.23;100.00
20987;BME280;10652;50.306;8.570;2022-11-12T04:38:56;99574.56;;;4.34;100.00
20987;BME280;10652;50.306;8.570;2022-11-12T04:43:16;99571.16;;;4.39;100.00
20987;BME280;10652;50.306;8.570;2022-11-12T04:47:56;99585.91;;;4.45;100.00
20987;BME280;10652;50.306;8.570;2022-11-12T04:52:16;99575.63;;;4.53;100.00
20987;BME280;10652;50.306;8.570;2022-11-12T04:56:37;99573.00;;;4.50;100.00
20987;BME280;10652;50.306;8.570;2022-11-12T05:00:57;99571.28;;;4.55;100.00
20987;BME280;10652;50.306;8.570;2022-11-12T05:05:18;99570.44;;;4.56;100.00
20987;BME280;10652;50.306;8.570;2022-11-12T05:09:39;99561.72;;;4.47;100.00
20987;BME280;10652;50.306;8.570;2022-11-12T05:14:00;99573.88;;;4.53;100.00
20987;BME280;10652;50.306;8.570;2022-11-12T05:18:21;99580.81;;;4.54;100.00
20987;BME280;10652;50.306;8.570;2022-11-12T05:22:41;99569.50;;;4.47;100.00
20987;BME280;10652;50.306;8.570;2022-11-12T05:27:16;99565.97;;;4.41;100.00
20987;BME280;10652;50.306;8.570;2022-11-12T05:31:37;99555.63;;;4.42;100.00
20987;BME280;10652;50.306;8.570;2022-11-12T05:35:58;99568.66;;;4.48;100.00
20987;BME280;10652;50.306;8.570;2022-11-12T05:40:19;99569.56;;;4.52;100.00
20987;BME280;10652;50.306;8.570;2022-11-12T05:44:40;99564.28;;;4.46;100.00
20987;BME280;10652;50.306;8.570;2022-11-12T05:49:01;99563.31;;;4.36;100.00
20987;BME280;10652;50.306;8.570;2022-11-12T05:53:22;99560.75;;;4.35;100.00
20987;BME280;10652;50.306;8.570;2022-11-12T05:57:42;99558.97;;;4.32;100.00
20987;BME280;10652;50.306;8.570;2022-11-12T06:02:03;99562.19;;;4.10;100.00
20987;BME280;10652;50.306;8.570;2022-11-12T06:06:23;99565.38;;;3.85;100.00
20987;BME280;10652;50.306;8.570;2022-11-12T06:10:54;99559.19;;;3.72;100.00
20987;BME280;10652;50.306;8.570;2022-11-12T06:15:14;99579.03;;;3.73;100.00
20987;BME280;10652;50.306;8.570;2022-11-12T06:19:35;99579.91;;;3.72;100.00
20987;BME280;10652;50.306;8.570;2022-11-12T06:23:58;99575.63;;;3.76;100.00
20987;BME280;10652;50.306;8.570;2022-11-12T06:28:19;99575.50;;;3.67;100.00
20987;BME280;10652;50.306;8.570;2022-11-12T06:32:39;99574.38;;;3.48;100.00
20987;BME280;10652;50.306;8.570;2022-11-12T06:37:00;99588.91;;;3.38;100.00
20987;BME280;10652;50.306;8.570;2022-11-12T06:41:21;99589.19;;;3.56;100.00
20987;BME280;10652;50.306;8.570;2022-11-12T06:45:41;99585.06;;;3.74;100.00
20987;BME280;10652;50.306;8.570;2022-11-12T06:50:02;99584.44;;;3.90;100.00
20987;BME280;10652;50.306;8.570;2022-11-12T06:54:23;99576.81;;;4.02;100.00
20987;BME280;10652;50.306;8.570;2022-11-12T06:58:43;99573.50;;;4.17;100.00
20987;BME280;10652;50.306;8.570;2022-11-12T07:03:05;99576.19;;;4.27;100.00
20987;BME280;10652;50.306;8.570;2022-11-12T07:07:27;99584.03;;;4.32;100.00
20987;BME280;10652;50.306;8.570;2022-11-12T07:11:48;99584.97;;;4.38;100.00
20987;BME280;10652;50.306;8.570;2022-11-12T07:16:09;99587.63;;;4.46;100.00
20987;BME280;10652;50.306;8.570;2022-11-12T07:20:30;99587.72;;;4.55;100.00
20987;BME280;10652;50.306;8.570;2022-11-12T07:24:51;99597.34;;;4.68;100.00
20987;BME280;10652;50.306;8.570;2022-11-12T07:29:12;99590.56;;;4.79;100.00
20987;BME280;10652;50.306;8.570;2022-11-12T07:33:52;99601.03;;;4.90;100.00
20987;BME280;10652;50.306;8.570;2022-11-12T07:38:13;99598.50;;;4.98;100.00
20987;BME280;10652;50.306;8.570;2022-11-12T07:42:34;99596.84;;;5.10;100.00
20987;BME280;10652;50.306;8.570;2022-11-12T07:46:55;99596.13;;;5.26;100.00
20987;BME280;10652;50.306;8.570;2022-11-12T07:51:27;99599.66;;;5.41;100.00
20987;BME280;10652;50.306;8.570;2022-11-12T07:55:53;99596.25;;;5.48;100.00
20987;BME280;10652;50.306;8.570;2022-11-12T08:00:14;99592.75;;;5.41;100.00
20987;BME280;10652;50.306;8.570;2022-11-12T08:04:35;99597.09;;;5.42;100.00
20987;BME280;10652;50.306;8.570;2022-11-12T08:08:57;99598.13;;;5.67;100.00
20987;BME280;10652;50.306;8.570;2022-11-12T08:13:18;99592.94;;;5.73;100.00
20987;BME280;10652;50.306;8.570;2022-11-12T08:17:39;99591.19;;;5.69;100.00
20987;BME280;10652;50.306;8.570;2022-11-12T08:21:59;99593.00;;;5.85;100.00
20987;BME280;10652;50.306;8.570;2022-11-12T08:26:20;99594.00;;;6.07;100.00
20987;BME280;10652;50.306;8.570;2022-11-12T08:30:41;99585.38;;;6.20;100.00
20987;BME280;10652;50.306;8.570;2022-11-12T08:35:02;99588.03;;;6.40;100.00
20987;BME280;10652;50.306;8.570;2022-11-12T08:39:23;99589.78;;;6.53;100.00
20987;BME280;10652;50.306;8.570;2022-11-12T08:43:44;99582.84;;;6.64;100.00
20987;BME280;10652;50.306;8.570;2022-11-12T08:48:10;99582.88;;;6.76;100.00
20987;BME280;10652;50.306;8.570;2022-11-12T08:52:31;99588.97;;;6.93;100.00
20987;BME280;10652;50.306;8.570;2022-11-12T08:56:52;99576.78;;;7.04;100.00
20987;BME280;10652;50.306;8.570;2022-11-12T09:01:12;99572.47;;;7.06;100.00
20987;BME280;10652;50.306;8.570;2022-11-12T09:05:34;99578.53;;;7.10;100.00
20987;BME280;10652;50.306;8.570;2022-11-12T09:09:54;99577.66;;;7.22;100.00
20987;BME280;10652;50.306;8.570;2022-11-12T09:14:15;99575.03;;;7.37;100.00
20987;BME280;10652;50.306;8.570;2022-11-12T09:18:36;99567.19;;;7.49;100.00
20987;BME280;10652;50.306;8.570;2022-11-12T09:22:58;99571.50;;;7.62;100.00
20987;BME280;10652;50.306;8.570;2022-11-12T09:27:19;99579.28;;;7.76;100.00
20987;BME280;10652;50.306;8.570;2022-11-12T09:31:40;99571.38;;;7.91;100.00
20987;BME280;10652;50.306;8.570;2022-11-12T09:36:01;99568.72;;;8.06;100.00
20987;BME280;10652;50.306;8.570;2022-11-12T09:40:31;99563.41;;;8.23;100.00
20987;BME280;10652;50.306;8.570;2022-11-12T09:45:05;99564.25;;;8.40;100.00
20987;BME280;10652;50.306;8.570;2022-11-12T09:49:33;99563.22;;;8.62;100.00
20987;BME280;10652;50.306;8.570;2022-11-12T09:53:57;99578.81;;;8.68;100.00
20987;BME280;10652;50.306;8.570;2022-11-12T09:58:19;99580.66;;;8.57;100.00
20987;BME280;10652;50.306;8.570;2022-11-12T10:03:07;99576.31;;;8.55;100.00
20987;BME280;10652;50.306;8.570;2022-11-12T10:07:47;99577.22;;;8.54;100.00
20987;BME280;10652;50.306;8.570;2022-11-12T10:12:23;99583.31;;;8.51;100.00
20987;BME280;10652;50.306;8.570;2022-11-12T10:17:04;99579.75;;;8.60;100.00
20987;BME280;10652;50.306;8.570;2022-11-12T10:25:57;99575.06;;;9.04;100.00
20987;BME280;10652;50.306;8.570;2022-11-12T10:30:21;99565.28;;;9.29;100.00
20987;BME280;10652;50.306;8.570;2022-11-12T10:34:43;99562.44;;;9.50;100.00
20987;BME280;10652;50.306;8.570;2022-11-12T10:39:04;99556.94;;;9.76;100.00
20987;BME280;10652;50.306;8.570;2022-11-12T10:43:25;99549.75;;;9.95;100.00
20987;BME280;10652;50.306;8.570;2022-11-12T10:47:45;99546.97;;;10.05;100.00
20987;BME280;10652;50.306;8.570;2022-11-12T10:52:19;99557.47;;;10.02;100.00
20987;BME280;10652;50.306;8.570;2022-11-12T10:56:40;99547.13;;;9.95;100.00
20987;BME280;10652;50.306;8.570;2022-11-12T11:01:12;99544.56;;;9.89;100.00
20987;BME280;10652;50.306;8.570;2022-11-12T11:05:47;99548.81;;;9.99;100.00
20987;BME280;10652;50.306;8.570;2022-11-12T11:10:26;99540.84;;;10.08;100.00
20987;BME280;10652;50.306;8.570;2022-11-12T11:15:04;99538.94;;;10.22;100.00
20987;BME280;10652;50.306;8.570;2022-11-12T11:19:38;99532.41;;;10.50;100.00
20987;BME280;10652;50.306;8.570;2022-11-12T11:29:15;99518.47;;;11.02;100.00
20987;BME280;10652;50.306;8.570;2022-11-12T11:38:51;99509.06;;;11.39;100.00
20987;BME280;10652;50.306;8.570;2022-11-12T11:47:53;99504.00;;;11.75;100.00
20987;BME280;10652;50.306;8.570;2022-11-12T11:52:43;99487.03;;;11.91;100.00
20987;BME280;10652;50.306;8.570;2022-11-12T11:57:20;99490.44;;;11.96;100.00
20987;BME280;10652;50.306;8.570;2022-11-12T12:06:35;99490.44;;;12.34;98.62
20987;BME280;10652;50.306;8.570;2022-11-12T12:20:43;99488.50;;;12.78;84.40
20987;BME280;10652;50.306;8.570;2022-11-12T12:29:43;99480.06;;;12.99;81.09
20987;BME280;10652;50.306;8.570;2022-11-12T12:34:21;99465.84;;;13.08;78.89
20987;BME280;10652;50.306;8.570;2022-11-12T12:39:17;99464.78;;;13.16;76.68
20987;BME280;10652;50.306;8.570;2022-11-12T12:43:55;99454.06;;;13.22;75.91
20987;BME280;10652;50.306;8.570;2022-11-12T12:48:21;99443.38;;;13.28;74.19
20987;BME280;10652;50.306;8.570;2022-11-12T12:57:37;99446.75;;;13.33;73.07
20987;BME280;10652;50.306;8.570;2022-11-12T13:02:00;99439.66;;;13.35;72.35
20987;BME280;10652;50.306;8.570;2022-11-12T13:15:10;99433.38;;;13.41;71.18
20987;BME280;10652;50.306;8.570;2022-11-12T13:19:33;99427.19;;;13.44;71.36
20987;BME280;10652;50.306;8.570;2022-11-12T13:24:01;99435.88;;;13.46;70.95
20987;BME280;10652;50.306;8.570;2022-11-12T13:28:28;99428.81;;;13.48;71.00
20987;BME280;10652;50.306;8.570;2022-11-12T13:37:18;99435.63;;;13.55;71.66
20987;BME280;10652;50.306;8.570;2022-11-12T13:41:39;99425.19;;;13.52;71.75
20987;BME280;10652;50.306;8.570;2022-11-12T13:46:28;99422.66;;;13.49;71.70
20987;BME280;10652;50.306;8.570;2022-11-12T13:50:54;99419.28;;;13.44;71.61
20987;BME280;10652;50.306;8.570;2022-11-12T13:55:18;99419.53;;;13.34;71.98
20987;BME280;10652;50.306;8.570;2022-11-12T13:59:39;99424.97;;;13.28;72.35
20987;BME280;10652;50.306;8.570;2022-11-12T14:04:00;99418.88;;;13.26;72.87
20987;BME280;10652;50.306;8.570;2022-11-12T14:22:19;99396.84;;;12.98;73.48
20987;BME280;10652;50.306;8.570;2022-11-12T14:26:41;99395.28;;;12.91;73.81
20987;BME280;10652;50.306;8.570;2022-11-12T14:31:10;99393.84;;;12.79;73.78
20987;BME280;10652;50.306;8.570;2022-11-12T14:35:36;99395.84;;;12.70;75.01
20987;BME280;10652;50.306;8.570;2022-11-12T14:39:57;99392.47;;;12.65;75.35
20987;BME280;10652;50.306;8.570;2022-11-12T14:44:32;99394.56;;;12.52;76.07
20987;BME280;10652;50.306;8.570;2022-11-12T14:49:00;99399.97;;;12.46;76.81
20987;BME280;10652;50.306;8.570;2022-11-12T14:57:51;99397.53;;;12.38;76.62
20987;BME280;10652;50.306;8.570;2022-11-12T15:02:15;99399.31;;;12.36;76.68
20987;BME280;10652;50.306;8.570;2022-11-12T15:06:59;99398.66;;;12.28;77.04
20987;BME280;10652;50.306;8.570;2022-11-12T15:16:04;99392.94;;;12.11;77.90
20987;BME280;10652;50.306;8.570;2022-11-12T15:20:26;99393.25;;;11.99;78.86
20987;BME280;10652;50.306;8.570;2022-11-12T15:24:47;99383.06;;;11.85;80.12
20987;BME280;10652;50.306;8.570;2022-11-12T15:33:29;99377.34;;;11.65;81.79
20987;BME280;10652;50.306;8.570;2022-11-12T15:37:50;99386.47;;;11.47;83.65
20987;BME280;10652;50.306;8.570;2022-11-12T15:42:37;99378.09;;;11.30;85.70
20987;BME280;10652;50.306;8.570;2022-11-12T15:46:56;99382.00;;;11.11;87.84
20987;BME280;10652;50.306;8.570;2022-11-12T15:51:17;99366.59;;;10.94;89.44
20987;BME280;10652;50.306;8.570;2022-11-12T15:55:39;99366.91;;;10.78;91.02
20987;BME280;10652;50.306;8.570;2022-11-12T16:00:23;99371.53;;;10.63;92.61
20987;BME280;10652;50.306;8.570;2022-11-12T16:04:42;99372.69;;;10.47;93.47
20987;BME280;10652;50.306;8.570;2022-11-12T16:09:03;99370.41;;;10.29;94.57
20987;BME280;10652;50.306;8.570;2022-11-12T16:13:31;99371.44;;;10.19;95.57
20987;BME280;10652;50.306;8.570;2022-11-12T16:17:55;99361.94;;;10.10;96.84
20987;BME280;10652;50.306;8.570;2022-11-12T16:22:16;99367.31;;;10.01;96.96
20987;BME280;10652;50.306;8.570;2022-11-12T16:26:37;99356.19;;;9.89;97.37
20987;BME280;10652;50.306;8.570;2022-11-12T16:30:57;99349.34;;;9.78;98.80
20987;BME280;10652;50.306;8.570;2022-11-12T16:35:18;99346.81;;;9.72;99.97
20987;BME280;10652;50.306;8.570;2022-11-12T16:39:39;99349.63;;;9.60;99.67
20987;BME280;10652;50.306;8.570;2022-11-12T16:44:00;99348.00;;;9.50;100.00
20987;BME280;10652;50.306;8.570;2022-11-12T16:48:21;99349.69;;;9.54;100.00
20987;BME280;10652;50.306;8.570;2022-11-12T16:52:42;99352.34;;;9.53;100.00
20987;BME280;10652;50.306;8.570;2022-11-12T16:57:02;99352.66;;;9.30;99.01
20987;BME280;10652;50.306;8.570;2022-11-12T17:01:26;99358.13;;;9.09;97.93
20987;BME280;10652;50.306;8.570;2022-11-12T17:05:50;99355.00;;;8.79;97.29
20987;BME280;10652;50.306;8.570;2022-11-12T17:10:12;99361.25;;;8.63;98.41
20987;BME280;10652;50.306;8.570;2022-11-12T17:14:33;99354.44;;;8.53;99.45
20987;BME280;10652;50.306;8.570;2022-11-12T17:18:55;99353.53;;;8.54;100.00
20987;BME280;10652;50.306;8.570;2022-11-12T17:23:16;99355.31;;;8.51;100.00
20987;BME280;10652;50.306;8.570;2022-11-12T17:27:37;99352.69;;;8.52;100.00
20987;BME280;10652;50.306;8.570;2022-11-12T17:31:57;99349.91;;;8.69;100.00
20987;BME280;10652;50.306;8.570;2022-11-12T17:36:23;99355.25;;;8.58;100.00
20987;BME280;10652;50.306;8.570;2022-11-12T17:40:44;99344.03;;;8.48;100.00
20987;BME280;10652;50.306;8.570;2022-11-12T17:45:05;99351.94;;;8.39;99.96
20987;BME280;10652;50.306;8.570;2022-11-12T17:49:26;99351.16;;;8.30;100.00
20987;BME280;10652;50.306;8.570;2022-11-12T17:53:47;99340.81;;;8.15;100.00
20987;BME280;10652;50.306;8.570;2022-11-12T17:58:08;99349.50;;;8.14;100.00
20987;BME280;10652;50.306;8.570;2022-11-12T18:02:28;99353.03;;;8.10;100.00
20987;BME280;10652;50.306;8.570;2022-11-12T18:06:49;99353.91;;;8.09;100.00
20987;BME280;10652;50.306;8.570;2022-11-12T18:11:11;99347.78;;;8.16;100.00
20987;BME280;10652;50.306;8.570;2022-11-12T18:15:32;99340.00;;;8.10;100.00
20987;BME280;10652;50.306;8.570;2022-11-12T18:19:52;99345.28;;;8.03;100.00
20987;BME280;10652;50.306;8.570;2022-11-12T18:24:14;99342.81;;;7.85;100.00
20987;BME280;10652;50.306;8.570;2022-11-12T18:28:35;99341.94;;;7.83;100.00
20987;BME280;10652;50.306;8.570;2022-11-12T18:32:55;99344.63;;;7.74;100.00
20987;BME280;10652;50.306;8.570;2022-11-12T18:37:16;99333.41;;;7.63;100.00
20987;BME280;10652;50.306;8.570;2022-11-12T18:41:37;99328.25;;;7.52;100.00
20987;BME280;10652;50.306;8.570;2022-11-12T18:45:58;99328.31;;;7.43;100.00
20987;BME280;10652;50.306;8.570;2022-11-12T18:50:19;99324.00;;;7.39;100.00
20987;BME280;10652;50.306;8.570;2022-11-12T18:54:40;99321.47;;;7.24;100.00
20987;BME280;10652;50.306;8.570;2022-11-12T18:59:00;99295.53;;;7.00;100.00
20987;BME280;10652;50.306;8.570;2022-11-12T19:03:21;99298.25;;;6.80;100.00
20987;BME280;10652;50.306;8.570;2022-11-12T19:07:41;99302.59;;;6.80;100.00
20987;BME280;10652;50.306;8.570;2022-11-12T19:12:02;99293.88;;;6.87;100.00
20987;BME280;10652;50.306;8.570;2022-11-12T19:16:23;99299.06;;;6.94;100.00
20987;BME280;10652;50.306;8.570;2022-11-12T19:20:45;99299.00;;;7.00;100.00
20987;BME280;10652;50.306;8.570;2022-11-12T19:25:06;99306.91;;;6.85;100.00
20987;BME280;10652;50.306;8.570;2022-11-12T19:29:27;99303.50;;;6.62;100.00
20987;BME280;10652;50.306;8.570;2022-11-12T19:33:48;99304.41;;;6.58;100.00
20987;BME280;10652;50.306;8.570;2022-11-12T19:38:09;99296.56;;;6.64;100.00
20987;BME280;10652;50.306;8.570;2022-11-12T19:42:30;99300.88;;;6.71;100.00
20987;BME280;10652;50.306;8.570;2022-11-12T19:46:50;99299.13;;;6.73;100.00
20987;BME280;10652;50.306;8.570;2022-11-12T19:51:11;99306.91;;;6.78;100.00
20987;BME280;10652;50.306;8.570;2022-11-12T19:55:33;99299.09;;;6.79;100.00
20987;BME280;10652;50.306;8.570;2022-11-12T19:59:59;99298.25;;;6.76;100.00
20987;BME280;10652;50.306;8.570;2022-11-12T20:04:19;99306.06;;;6.68;100.00
20987;BME280;10652;50.306;8.570;2022-11-12T20:08:44;99292.19;;;6.69;100.00
20987;BME280;10652;50.306;8.570;2022-11-12T20:13:05;99294.81;;;6.69;100.00
20987;BME280;10652;50.306;8.570;2022-11-12T20:17:26;99286.16;;;6.61;100.00
20987;BME280;10652;50.306;8.570;2022-11-12T20:21:47;99293.13;;;6.53;100.00
20987;BME280;10652;50.306;8.570;2022-11-12T20:26:09;99295.75;;;6.47;100.00
20987;BME280;10652;50.306;8.570;2022-11-12T20:30:30;99293.16;;;6.38;100.00
20987;BME280;10652;50.306;8.570;2022-11-12T20:34:51;99297.53;;;6.19;100.00
20987;BME280;10652;50.306;8.570;2022-11-12T20:39:11;99295.84;;;5.98;100.00
20987;BME280;10652;50.306;8.570;2022-11-12T20:43:33;99281.97;;;5.93;100.00
20987;BME280;10652;50.306;8.570;2022-11-12T20:47:54;99275.03;;;5.94;100.00
20987;BME280;10652;50.306;8.570;2022-11-12T20:52:15;99273.28;;;5.96;100.00
20987;BME280;10652;50.306;8.570;2022-11-12T20:56:36;99275.91;;;5.93;100.00
20987;BME280;10652;50.306;8.570;2022-11-12T21:00:56;99266.38;;;5.89;100.00
20987;BME280;10652;50.306;8.570;2022-11-12T21:05:17;99269.84;;;5.94;100.00
20987;BME280;10652;50.306;8.570;2022-11-12T21:09:37;99258.56;;;5.87;100.00
20987;BME280;10652;50.306;8.570;2022-11-12T21:13:58;99262.88;;;5.67;100.00
20987;BME280;10652;50.306;8.570;2022-11-12T21:18:24;99242.94;;;5.42;100.00
20987;BME280;10652;50.306;8.570;2022-11-12T21:22:46;99249.88;;;5.29;100.00
20987;BME280;10652;50.306;8.570;2022-11-12T21:27:07;99248.16;;;5.38;100.00
20987;BME280;10652;50.306;8.570;2022-11-12T21:31:28;99250.75;;;5.48;100.00
20987;BME280;10652;50.306;8.570;2022-11-12T21:35:52;99252.47;;;5.59;100.00
20987;BME280;10652;50.306;8.570;2022-11-12T21:40:13;99249.03;;;5.57;100.00
20987;BME280;10652;50.306;8.570;2022-11-12T21:44:33;99245.56;;;5.54;100.00
20987;BME280;10652;50.306;8.570;2022-11-12T21:48:55;99237.78;;;5.48;100.00
20987;BME280;10652;50.306;8.570;2022-11-12T21:53:15;99231.69;;;5.38;100.00
20987;BME280;10652;50.306;8.570;2022-11-12T21:57:36;99227.38;;;5.22;100.00
20987;BME280;10652;50.306;8.570;2022-11-12T22:01:57;99229.94;;;5.11;100.00
20987;BME280;10652;50.306;8.570;2022-11-12T22:06:18;99221.25;;;5.05;100.00
20987;BME280;10652;50.306;8.570;2022-11-12T22:10:39;99209.16;;;5.11;100.00
20987;BME280;10652;50.306;8.570;2022-11-12T22:15:00;99209.16;;;5.11;100.00
20987;BME280;10652;50.306;8.570;2022-11-12T22:19:20;99200.50;;;5.02;100.00
20987;BME280;10652;50.306;8.570;2022-11-12T22:23:42;99204.00;;;5.08;100.00
20987;BME280;10652;50.306;8.570;2022-11-12T22:28:03;99192.69;;;5.00;100.00
20987;BME280;10652;50.306;8.570;2022-11-12T22:32:24;99193.59;;;4.95;100.00
20987;BME280;10652;50.306;8.570;2022-11-12T22:36:44;99185.78;;;5.02;100.00
20987;BME280;10652;50.306;8.570;2022-11-12T22:41:07;99189.25;;;4.89;100.00
20987;BME280;10652;50.306;8.570;2022-11-12T22:45:28;99183.16;;;4.75;100.00
20987;BME280;10652;50.306;8.570;2022-11-12T22:49:49;99183.13;;;4.63;100.00
20987;BME280;10652;50.306;8.570;2022-11-12T22:54:10;99174.47;;;4.61;100.00
20987;BME280;10652;50.306;8.570;2022-11-12T22:58:38;99176.22;;;4.69;100.00
20987;BME280;10652;50.306;8.570;2022-11-12T23:02:59;99177.06;;;4.73;100.00
20987;BME280;10652;50.306;8.570;2022-11-12T23:07:20;99171.06;;;4.77;100.00
20987;BME280;10652;50.306;8.570;2022-11-12T23:11:40;99167.59;;;4.75;100.00
20987;BME280;10652;50.306;8.570;2022-11-12T23:16:01;99173.66;;;4.77;100.00
20987;BME280;10652;50.306;8.570;2022-11-12T23:20:24;99178.84;;;4.77;100.00
20987;BME280;10652;50.306;8.570;2022-11-12T23:24:45;99169.31;;;4.67;100.00
20987;BME280;10652;50.306;8.570;2022-11-12T23:29:06;99163.22;;;4.56;100.00
20987;BME280;10652;50.306;8.570;2022-11-12T23:33:27;99164.91;;;4.47;100.00
20987;BME280;10652;50.306;8.570;2022-11-12T23:37:47;99162.34;;;4.54;100.00
20987;BME280;10652;50.306;8.570;2022-11-12T23:42:07;99154.59;;;4.58;100.00
20987;BME280;10652;50.306;8.570;2022-11-12T23:46:28;99145.94;;;4.58;100.00
20987;BME280;10652;50.306;8.570;2022-11-12T23:50:50;99146.78;;;4.55;100.00
20987;BME280;10652;50.306;8.570;2022-11-12T23:55:10;99152.84;;;4.53;100.00
20987;BME280;10652;50.306;8.570;2022-11-12T23:59:31;99158.03;;;4.53;100.00
